sensor_id;sensor_type;location;lat;lon;timestamp;temperature;humidity
11140;DHT22;5624;49.388;11.350;2023-02-28T00:01:03;-3.60;81.00
11140;DHT22;5624;49.388;11.350;2023-02-28T00:03:28;-3.60;81.10
11140;DHT22;5624;49.388;11.350;2023-02-28T00:05:54;-3.60;81.20
11140;DHT22;5624;49.388;11.350;2023-02-28T00:08:19;-3.70;81.60
11140;DHT22;5624;49.388;11.350;2023-02-28T00:10:45;-3.70;81.70
11140;DHT22;5624;49.388;11.350;2023-02-28T00:13:11;-3.60;82.40
11140;DHT22;5624;49.388;11.350;2023-02-28T00:15:38;-3.70;82.10
11140;DHT22;5624;49.388;11.350;2023-02-28T00:18:04;-3.70;82.20
11140;DHT22;5624;49.388;11.350;2023-02-28T00:20:29;-3.70;82.20
11140;DHT22;5624;49.388;11.350;2023-02-28T00:22:55;-3.70;82.20
11140;DHT22;5624;49.388;11.350;2023-02-28T00:25:23;-3.60;82.60
11140;DHT22;5624;49.388;11.350;2023-02-28T00:27:49;-3.70;82.90
11140;DHT22;5624;49.388;11.350;2023-02-28T00:30:20;-3.70;82.60
11140;DHT22;5624;49.388;11.350;2023-02-28T00:32:47;-3.70;82.70
11140;DHT22;5624;49.388;11.350;2023-02-28T00:35:12;-3.70;82.70
11140;DHT22;5624;49.388;11.350;2023-02-28T00:37:38;-3.70;82.80
11140;DHT22;5624;49.388;11.350;2023-02-28T00:40:05;-3.70;82.80
11140;DHT22;5624;49.388;11.350;2023-02-28T00:42:32;-3.70;82.80
11140;DHT22;5624;49.388;11.350;2023-02-28T00:44:57;-3.70;83.10
11140;DHT22;5624;49.388;11.350;2023-02-28T00:47:23;-3.80;83.10
11140;DHT22;5624;49.388;11.350;2023-02-28T00:49:49;-3.70;83.00
11140;DHT22;5624;49.388;11.350;2023-02-28T00:52:14;-3.70;82.90
11140;DHT22;5624;49.388;11.350;2023-02-28T00:54:40;-3.70;83.20
11140;DHT22;5624;49.388;11.350;2023-02-28T00:57:05;-3.80;83.40
11140;DHT22;5624;49.388;11.350;2023-02-28T00:59:31;-3.80;83.40
11140;DHT22;5624;49.388;11.350;2023-02-28T01:01:57;-3.80;83.40
11140;DHT22;5624;49.388;11.350;2023-02-28T01:04:22;-3.80;83.70
11140;DHT22;5624;49.388;11.350;2023-02-28T01:06:48;-3.80;83.50
11140;DHT22;5624;49.388;11.350;2023-02-28T01:09:14;-3.90;83.80
11140;DHT22;5624;49.388;11.350;2023-02-28T01:11:40;-3.80;83.90
11140;DHT22;5624;49.388;11.350;2023-02-28T01:14:08;-3.90;83.90
11140;DHT22;5624;49.388;11.350;2023-02-28T01:16:34;-3.80;83.80
11140;DHT22;5624;49.388;11.350;2023-02-28T01:18:59;-3.90;83.70
11140;DHT22;5624;49.388;11.350;2023-02-28T01:21:25;-3.90;83.80
11140;DHT22;5624;49.388;11.350;2023-02-28T01:23:50;-3.90;83.70
11140;DHT22;5624;49.388;11.350;2023-02-28T01:26:22;-3.90;84.00
11140;DHT22;5624;49.388;11.350;2023-02-28T01:28:49;-3.90;84.00
11140;DHT22;5624;49.388;11.350;2023-02-28T01:31:15;-3.90;83.90
11140;DHT22;5624;49.388;11.350;2023-02-28T01:33:41;-3.90;83.80
11140;DHT22;5624;49.388;11.350;2023-02-28T01:36:11;-3.90;83.80
11140;DHT22;5624;49.388;11.350;2023-02-28T01:38:38;-3.90;83.80
11140;DHT22;5624;49.388;11.350;2023-02-28T01:41:04;-3.90;84.00
11140;DHT22;5624;49.388;11.350;2023-02-28T01:43:35;-3.90;84.00
11140;DHT22;5624;49.388;11.350;2023-02-28T01:46:17;-4.00;84.10
11140;DHT22;5624;49.388;11.350;2023-02-28T01:49:08;-3.90;84.00
11140;DHT22;5624;49.388;11.350;2023-02-28T01:51:51;-4.00;84.00
11140;DHT22;5624;49.388;11.350;2023-02-28T01:54:22;-3.90;84.10
11140;DHT22;5624;49.388;11.350;2023-02-28T01:56:56;-3.90;84.10
11140;DHT22;5624;49.388;11.350;2023-02-28T01:59:33;-4.00;84.30
11140;DHT22;5624;49.388;11.350;2023-02-28T02:02:01;-4.00;84.30
11140;DHT22;5624;49.388;11.350;2023-02-28T02:04:37;-4.00;84.40
11140;DHT22;5624;49.388;11.350;2023-02-28T02:07:04;-4.00;84.50
11140;DHT22;5624;49.388;11.350;2023-02-28T02:09:30;-3.90;84.80
11140;DHT22;5624;49.388;11.350;2023-02-28T02:11:56;-4.00;84.50
11140;DHT22;5624;49.388;11.350;2023-02-28T02:14:50;-4.00;84.70
11140;DHT22;5624;49.388;11.350;2023-02-28T02:17:42;-3.90;85.10
11140;DHT22;5624;49.388;11.350;2023-02-28T02:20:46;-4.10;84.80
11140;DHT22;5624;49.388;11.350;2023-02-28T02:32:09;-4.10;85.10
11140;DHT22;5624;49.388;11.350;2023-02-28T02:35:04;-4.10;85.10
11140;DHT22;5624;49.388;11.350;2023-02-28T02:37:39;-4.10;85.40
11140;DHT22;5624;49.388;11.350;2023-02-28T02:45:26;-4.10;85.40
11140;DHT22;5624;49.388;11.350;2023-02-28T02:47:53;-4.10;85.60
11140;DHT22;5624;49.388;11.350;2023-02-28T02:50:24;-4.10;85.50
11140;DHT22;5624;49.388;11.350;2023-02-28T02:52:55;-4.10;85.50
11140;DHT22;5624;49.388;11.350;2023-02-28T02:55:22;-4.10;85.30
11140;DHT22;5624;49.388;11.350;2023-02-28T02:58:04;-4.10;85.30
11140;DHT22;5624;49.388;11.350;2023-02-28T03:00:35;-4.10;85.30
11140;DHT22;5624;49.388;11.350;2023-02-28T03:03:03;-4.10;85.60
11140;DHT22;5624;49.388;11.350;2023-02-28T03:05:42;-4.10;85.50
11140;DHT22;5624;49.388;11.350;2023-02-28T03:08:09;-4.10;85.40
11140;DHT22;5624;49.388;11.350;2023-02-28T03:10:36;-4.10;85.80
11140;DHT22;5624;49.388;11.350;2023-02-28T03:18:32;-4.20;85.60
11140;DHT22;5624;49.388;11.350;2023-02-28T03:21:10;-4.20;85.70
11140;DHT22;5624;49.388;11.350;2023-02-28T03:23:59;-4.20;85.80
11140;DHT22;5624;49.388;11.350;2023-02-28T03:26:27;-4.20;85.90
11140;DHT22;5624;49.388;11.350;2023-02-28T03:29:13;-4.30;86.30
11140;DHT22;5624;49.388;11.350;2023-02-28T03:31:54;-4.20;86.40
11140;DHT22;5624;49.388;11.350;2023-02-28T03:34:29;-4.20;86.30
11140;DHT22;5624;49.388;11.350;2023-02-28T03:37:05;-4.20;86.20
11140;DHT22;5624;49.388;11.350;2023-02-28T03:40:11;-4.20;86.40
11140;DHT22;5624;49.388;11.350;2023-02-28T03:42:41;-4.20;86.60
11140;DHT22;5624;49.388;11.350;2023-02-28T03:45:16;-4.30;86.60
11140;DHT22;5624;49.388;11.350;2023-02-28T03:47:45;-4.20;86.50
11140;DHT22;5624;49.388;11.350;2023-02-28T03:50:22;-4.20;86.50
11140;DHT22;5624;49.388;11.350;2023-02-28T03:53:01;-4.20;87.00
11140;DHT22;5624;49.388;11.350;2023-02-28T03:55:34;-4.30;86.70
11140;DHT22;5624;49.388;11.350;2023-02-28T03:58:12;-4.30;87.00
11140;DHT22;5624;49.388;11.350;2023-02-28T04:00:45;-4.30;87.00
11140;DHT22;5624;49.388;11.350;2023-02-28T04:03:11;-4.30;87.20
11140;DHT22;5624;49.388;11.350;2023-02-28T04:05:56;-4.30;87.70
11140;DHT22;5624;49.388;11.350;2023-02-28T04:08:22;-4.30;87.00
11140;DHT22;5624;49.388;11.350;2023-02-28T04:10:54;-4.40;87.30
11140;DHT22;5624;49.388;11.350;2023-02-28T04:13:20;-4.40;87.90
11140;DHT22;5624;49.388;11.350;2023-02-28T04:15:46;-4.40;87.50
11140;DHT22;5624;49.388;11.350;2023-02-28T04:18:11;-4.40;87.80
11140;DHT22;5624;49.388;11.350;2023-02-28T04:20:37;-4.40;88.10
11140;DHT22;5624;49.388;11.350;2023-02-28T04:23:02;-4.40;88.10
11140;DHT22;5624;49.388;11.350;2023-02-28T04:25:28;-4.40;87.90
11140;DHT22;5624;49.388;11.350;2023-02-28T04:27:53;-4.40;87.90
11140;DHT22;5624;49.388;11.350;2023-02-28T04:30:19;-4.40;88.00
11140;DHT22;5624;49.388;11.350;2023-02-28T04:32:45;-4.30;87.90
11140;DHT22;5624;49.388;11.350;2023-02-28T04:35:10;-4.30;87.90
11140;DHT22;5624;49.388;11.350;2023-02-28T04:37:36;-4.30;87.80
11140;DHT22;5624;49.388;11.350;2023-02-28T04:40:03;-4.30;87.90
11140;DHT22;5624;49.388;11.350;2023-02-28T04:42:28;-4.30;88.10
11140;DHT22;5624;49.388;11.350;2023-02-28T04:45:03;-4.30;88.30
11140;DHT22;5624;49.388;11.350;2023-02-28T04:47:29;-4.30;87.90
11140;DHT22;5624;49.388;11.350;2023-02-28T04:49:54;-4.30;87.80
11140;DHT22;5624;49.388;11.350;2023-02-28T04:52:20;-4.30;87.80
11140;DHT22;5624;49.388;11.350;2023-02-28T04:54:46;-4.20;87.70
11140;DHT22;5624;49.388;11.350;2023-02-28T04:57:11;-4.30;87.70
11140;DHT22;5624;49.388;11.350;2023-02-28T04:59:37;-4.20;87.60
11140;DHT22;5624;49.388;11.350;2023-02-28T05:02:02;-4.20;87.70
11140;DHT22;5624;49.388;11.350;2023-02-28T05:04:33;-4.20;87.70
11140;DHT22;5624;49.388;11.350;2023-02-28T05:07:00;-4.20;87.50
11140;DHT22;5624;49.388;11.350;2023-02-28T05:09:26;-4.20;87.50
11140;DHT22;5624;49.388;11.350;2023-02-28T05:11:51;-4.20;87.40
11140;DHT22;5624;49.388;11.350;2023-02-28T05:14:17;-4.20;87.90
11140;DHT22;5624;49.388;11.350;2023-02-28T05:16:42;-4.20;87.40
11140;DHT22;5624;49.388;11.350;2023-02-28T05:19:08;-4.20;87.10
11140;DHT22;5624;49.388;11.350;2023-02-28T05:21:36;-4.20;87.10
11140;DHT22;5624;49.388;11.350;2023-02-28T05:24:10;-4.20;87.10
11140;DHT22;5624;49.388;11.350;2023-02-28T05:26:37;-4.20;87.00
11140;DHT22;5624;49.388;11.350;2023-02-28T05:29:03;-4.20;87.10
11140;DHT22;5624;49.388;11.350;2023-02-28T05:31:30;-4.20;87.10
11140;DHT22;5624;49.388;11.350;2023-02-28T05:33:56;-4.20;86.90
11140;DHT22;5624;49.388;11.350;2023-02-28T05:36:22;-4.20;86.80
11140;DHT22;5624;49.388;11.350;2023-02-28T05:38:49;-4.20;86.70
11140;DHT22;5624;49.388;11.350;2023-02-28T05:41:15;-4.20;86.70
11140;DHT22;5624;49.388;11.350;2023-02-28T05:43:40;-4.20;86.70
11140;DHT22;5624;49.388;11.350;2023-02-28T05:46:08;-4.20;86.40
11140;DHT22;5624;49.388;11.350;2023-02-28T05:48:35;-4.10;86.20
11140;DHT22;5624;49.388;11.350;2023-02-28T05:51:02;-4.20;86.00
11140;DHT22;5624;49.388;11.350;2023-02-28T05:53:28;-4.10;86.60
11140;DHT22;5624;49.388;11.350;2023-02-28T05:55:54;-4.20;86.20
11140;DHT22;5624;49.388;11.350;2023-02-28T05:58:20;-4.10;86.00
11140;DHT22;5624;49.388;11.350;2023-02-28T06:00:46;-4.10;85.40
11140;DHT22;5624;49.388;11.350;2023-02-28T06:03:12;-4.10;85.80
11140;DHT22;5624;49.388;11.350;2023-02-28T06:05:37;-4.20;85.30
11140;DHT22;5624;49.388;11.350;2023-02-28T06:08:04;-4.10;85.00
11140;DHT22;5624;49.388;11.350;2023-02-28T06:10:32;-4.10;84.90
11140;DHT22;5624;49.388;11.350;2023-02-28T06:13:00;-4.10;84.60
11140;DHT22;5624;49.388;11.350;2023-02-28T06:15:28;-4.10;84.40
11140;DHT22;5624;49.388;11.350;2023-02-28T06:17:53;-4.10;84.30
11140;DHT22;5624;49.388;11.350;2023-02-28T06:20:19;-4.00;83.90
11140;DHT22;5624;49.388;11.350;2023-02-28T06:22:45;-4.00;83.60
11140;DHT22;5624;49.388;11.350;2023-02-28T06:25:10;-4.00;83.40
11140;DHT22;5624;49.388;11.350;2023-02-28T06:27:36;-4.00;83.40
11140;DHT22;5624;49.388;11.350;2023-02-28T06:30:02;-3.70;82.60
11140;DHT22;5624;49.388;11.350;2023-02-28T06:32:27;-3.20;80.10
11140;DHT22;5624;49.388;11.350;2023-02-28T06:34:53;-2.80;78.00
11140;DHT22;5624;49.388;11.350;2023-02-28T06:37:19;-2.80;77.50
11140;DHT22;5624;49.388;11.350;2023-02-28T06:39:44;-3.10;78.30
11140;DHT22;5624;49.388;11.350;2023-02-28T06:42:10;-3.00;78.60
11140;DHT22;5624;49.388;11.350;2023-02-28T06:44:36;-3.00;78.00
11140;DHT22;5624;49.388;11.350;2023-02-28T06:47:03;-2.90;77.90
11140;DHT22;5624;49.388;11.350;2023-02-28T06:49:32;-3.00;77.60
11140;DHT22;5624;49.388;11.350;2023-02-28T06:51:58;-3.00;77.80
11140;DHT22;5624;49.388;11.350;2023-02-28T06:54:23;-3.00;77.60
11140;DHT22;5624;49.388;11.350;2023-02-28T06:56:49;-2.90;77.20
11140;DHT22;5624;49.388;11.350;2023-02-28T06:59:15;-2.70;76.20
11140;DHT22;5624;49.388;11.350;2023-02-28T07:01:41;-2.10;74.70
11140;DHT22;5624;49.388;11.350;2023-02-28T07:04:07;-1.40;71.70
11140;DHT22;5624;49.388;11.350;2023-02-28T07:06:33;-1.10;69.60
11140;DHT22;5624;49.388;11.350;2023-02-28T07:08:58;-0.90;68.10
11140;DHT22;5624;49.388;11.350;2023-02-28T07:11:26;-0.90;68.00
11140;DHT22;5624;49.388;11.350;2023-02-28T07:13:55;-0.60;67.70
11140;DHT22;5624;49.388;11.350;2023-02-28T07:16:24;-0.50;65.70
11140;DHT22;5624;49.388;11.350;2023-02-28T07:18:53;-0.50;66.00
11140;DHT22;5624;49.388;11.350;2023-02-28T07:21:19;-0.30;65.50
11140;DHT22;5624;49.388;11.350;2023-02-28T07:23:44;-0.30;65.80
11140;DHT22;5624;49.388;11.350;2023-02-28T07:26:15;-0.30;66.10
11140;DHT22;5624;49.388;11.350;2023-02-28T07:28:43;-0.30;65.20
11140;DHT22;5624;49.388;11.350;2023-02-28T07:31:10;-0.40;65.80
11140;DHT22;5624;49.388;11.350;2023-02-28T07:33:36;-0.10;65.30
11140;DHT22;5624;49.388;11.350;2023-02-28T07:36:07;0.00;65.10
11140;DHT22;5624;49.388;11.350;2023-02-28T07:38:35;0.00;65.10
11140;DHT22;5624;49.388;11.350;2023-02-28T07:41:01;0.00;64.50
11140;DHT22;5624;49.388;11.350;2023-02-28T07:43:30;-0.10;65.70
11140;DHT22;5624;49.388;11.350;2023-02-28T07:45:55;-0.40;66.30
11140;DHT22;5624;49.388;11.350;2023-02-28T07:48:21;-0.50;66.50
11140;DHT22;5624;49.388;11.350;2023-02-28T07:50:54;-0.30;67.20
11140;DHT22;5624;49.388;11.350;2023-02-28T07:53:20;-0.20;66.40
11140;DHT22;5624;49.388;11.350;2023-02-28T07:55:46;-0.10;65.90
11140;DHT22;5624;49.388;11.350;2023-02-28T07:58:12;0.00;65.40
11140;DHT22;5624;49.388;11.350;2023-02-28T08:00:37;-0.20;66.50
11140;DHT22;5624;49.388;11.350;2023-02-28T08:03:03;0.00;66.20
11140;DHT22;5624;49.388;11.350;2023-02-28T08:05:29;0.10;65.30
11140;DHT22;5624;49.388;11.350;2023-02-28T08:07:55;0.30;64.90
11140;DHT22;5624;49.388;11.350;2023-02-28T08:10:21;0.50;64.00
11140;DHT22;5624;49.388;11.350;2023-02-28T08:12:47;0.70;63.40
11140;DHT22;5624;49.388;11.350;2023-02-28T08:15:12;0.80;62.70
11140;DHT22;5624;49.388;11.350;2023-02-28T08:17:38;0.70;62.30
11140;DHT22;5624;49.388;11.350;2023-02-28T08:20:04;0.40;62.90
11140;DHT22;5624;49.388;11.350;2023-02-28T08:22:29;0.50;63.10
11140;DHT22;5624;49.388;11.350;2023-02-28T08:24:55;0.50;62.90
11140;DHT22;5624;49.388;11.350;2023-02-28T08:27:20;0.60;62.60
11140;DHT22;5624;49.388;11.350;2023-02-28T08:29:46;0.90;63.00
11140;DHT22;5624;49.388;11.350;2023-02-28T08:32:12;1.10;61.90
11140;DHT22;5624;49.388;11.350;2023-02-28T08:34:39;1.00;60.10
11140;DHT22;5624;49.388;11.350;2023-02-28T08:37:05;1.10;61.40
11140;DHT22;5624;49.388;11.350;2023-02-28T08:39:34;1.50;59.40
11140;DHT22;5624;49.388;11.350;2023-02-28T08:42:01;1.70;58.50
11140;DHT22;5624;49.388;11.350;2023-02-28T08:44:27;1.50;58.10
11140;DHT22;5624;49.388;11.350;2023-02-28T08:46:53;1.30;58.90
11140;DHT22;5624;49.388;11.350;2023-02-28T08:49:18;0.60;60.10
11140;DHT22;5624;49.388;11.350;2023-02-28T08:51:44;0.20;61.50
11140;DHT22;5624;49.388;11.350;2023-02-28T08:54:09;0.00;63.80
11140;DHT22;5624;49.388;11.350;2023-02-28T08:56:38;0.10;63.20
11140;DHT22;5624;49.388;11.350;2023-02-28T08:59:03;-0.10;63.80
11140;DHT22;5624;49.388;11.350;2023-02-28T09:01:30;0.00;62.90
11140;DHT22;5624;49.388;11.350;2023-02-28T09:03:57;0.00;62.80
11140;DHT22;5624;49.388;11.350;2023-02-28T09:06:24;0.30;63.00
11140;DHT22;5624;49.388;11.350;2023-02-28T09:08:51;0.50;60.60
11140;DHT22;5624;49.388;11.350;2023-02-28T09:11:17;0.70;60.50
11140;DHT22;5624;49.388;11.350;2023-02-28T09:13:45;1.10;60.30
11140;DHT22;5624;49.388;11.350;2023-02-28T09:16:12;1.40;57.20
11140;DHT22;5624;49.388;11.350;2023-02-28T09:18:39;1.80;58.10
11140;DHT22;5624;49.388;11.350;2023-02-28T09:21:07;2.00;55.80
11140;DHT22;5624;49.388;11.350;2023-02-28T09:23:34;2.30;55.40
11140;DHT22;5624;49.388;11.350;2023-02-28T09:25:59;2.60;54.90
11140;DHT22;5624;49.388;11.350;2023-02-28T09:28:25;2.90;53.60
11140;DHT22;5624;49.388;11.350;2023-02-28T09:30:53;2.60;52.30
11140;DHT22;5624;49.388;11.350;2023-02-28T09:33:19;2.40;54.20
11140;DHT22;5624;49.388;11.350;2023-02-28T09:35:46;2.20;54.20
11140;DHT22;5624;49.388;11.350;2023-02-28T09:38:12;2.50;54.00
11140;DHT22;5624;49.388;11.350;2023-02-28T09:40:51;2.60;52.90
11140;DHT22;5624;49.388;11.350;2023-02-28T09:43:20;2.60;52.60
11140;DHT22;5624;49.388;11.350;2023-02-28T09:45:55;2.50;53.40
11140;DHT22;5624;49.388;11.350;2023-02-28T09:48:28;2.40;53.50
11140;DHT22;5624;49.388;11.350;2023-02-28T09:51:04;2.30;53.60
11140;DHT22;5624;49.388;11.350;2023-02-28T09:53:33;3.00;53.30
11140;DHT22;5624;49.388;11.350;2023-02-28T09:56:14;3.40;50.80
11140;DHT22;5624;49.388;11.350;2023-02-28T10:05:04;3.00;51.00
11140;DHT22;5624;49.388;11.350;2023-02-28T10:10:29;2.80;51.70
11140;DHT22;5624;49.388;11.350;2023-02-28T10:12:58;3.30;50.60
11140;DHT22;5624;49.388;11.350;2023-02-28T10:15:29;3.00;50.20
11140;DHT22;5624;49.388;11.350;2023-02-28T10:17:59;2.90;51.30
11140;DHT22;5624;49.388;11.350;2023-02-28T10:20:26;3.00;50.20
11140;DHT22;5624;49.388;11.350;2023-02-28T10:25:46;3.20;48.90
11140;DHT22;5624;49.388;11.350;2023-02-28T10:28:17;2.90;50.70
11140;DHT22;5624;49.388;11.350;2023-02-28T10:30:51;3.10;50.50
11140;DHT22;5624;49.388;11.350;2023-02-28T10:35:48;3.60;49.70
11140;DHT22;5624;49.388;11.350;2023-02-28T10:38:18;3.80;48.80
11140;DHT22;5624;49.388;11.350;2023-02-28T10:40:45;4.00;47.60
11140;DHT22;5624;49.388;11.350;2023-02-28T10:45:39;4.40;46.10
11140;DHT22;5624;49.388;11.350;2023-02-28T11:01:41;4.10;47.30
11140;DHT22;5624;49.388;11.350;2023-02-28T11:04:33;3.70;49.50
11140;DHT22;5624;49.388;11.350;2023-02-28T11:07:04;4.00;48.40
11140;DHT22;5624;49.388;11.350;2023-02-28T11:11:56;4.70;46.50
11140;DHT22;5624;49.388;11.350;2023-02-28T11:14:25;4.40;45.80
11140;DHT22;5624;49.388;11.350;2023-02-28T11:16:52;4.00;47.20
11140;DHT22;5624;49.388;11.350;2023-02-28T11:19:33;4.10;46.80
11140;DHT22;5624;49.388;11.350;2023-02-28T11:22:01;4.30;46.60
11140;DHT22;5624;49.388;11.350;2023-02-28T11:24:40;4.00;46.50
11140;DHT22;5624;49.388;11.350;2023-02-28T11:29:57;4.30;46.30
11140;DHT22;5624;49.388;11.350;2023-02-28T11:32:25;4.40;46.20
11140;DHT22;5624;49.388;11.350;2023-02-28T11:35:24;4.20;46.10
11140;DHT22;5624;49.388;11.350;2023-02-28T11:37:48;3.90;46.50
11140;DHT22;5624;49.388;11.350;2023-02-28T11:40:18;4.20;47.20
11140;DHT22;5624;49.388;11.350;2023-02-28T11:43:01;4.30;47.90
11140;DHT22;5624;49.388;11.350;2023-02-28T11:45:55;4.60;47.20
11140;DHT22;5624;49.388;11.350;2023-02-28T11:51:27;4.10;46.40
11140;DHT22;5624;49.388;11.350;2023-02-28T11:57:20;4.00;46.20
11140;DHT22;5624;49.388;11.350;2023-02-28T12:08:06;4.10;47.60
11140;DHT22;5624;49.388;11.350;2023-02-28T12:13:21;3.50;48.70
11140;DHT22;5624;49.388;11.350;2023-02-28T12:15:53;3.60;48.70
11140;DHT22;5624;49.388;11.350;2023-02-28T12:21:01;3.90;48.10
11140;DHT22;5624;49.388;11.350;2023-02-28T12:23:54;3.70;48.30
11140;DHT22;5624;49.388;11.350;2023-02-28T12:28:52;3.30;49.00
11140;DHT22;5624;49.388;11.350;2023-02-28T12:31:24;3.30;48.90
11140;DHT22;5624;49.388;11.350;2023-02-28T12:33:55;3.20;50.10
11140;DHT22;5624;49.388;11.350;2023-02-28T12:36:22;3.30;49.00
11140;DHT22;5624;49.388;11.350;2023-02-28T12:41:59;3.20;49.80
11140;DHT22;5624;49.388;11.350;2023-02-28T12:44:30;3.30;50.10
11140;DHT22;5624;49.388;11.350;2023-02-28T12:47:04;3.50;49.80
11140;DHT22;5624;49.388;11.350;2023-02-28T12:52:09;3.90;50.10
11140;DHT22;5624;49.388;11.350;2023-02-28T12:54:40;3.60;49.10
11140;DHT22;5624;49.388;11.350;2023-02-28T12:57:18;3.60;48.80
11140;DHT22;5624;49.388;11.350;2023-02-28T12:59:49;3.60;48.70
11140;DHT22;5624;49.388;11.350;2023-02-28T13:02:41;3.90;50.10
11140;DHT22;5624;49.388;11.350;2023-02-28T13:11:02;3.40;49.50
11140;DHT22;5624;49.388;11.350;2023-02-28T13:13:29;3.30;49.90
11140;DHT22;5624;49.388;11.350;2023-02-28T13:16:06;3.20;50.20
11140;DHT22;5624;49.388;11.350;2023-02-28T13:20:58;3.20;51.20
11140;DHT22;5624;49.388;11.350;2023-02-28T13:40:07;3.20;51.10
11140;DHT22;5624;49.388;11.350;2023-02-28T13:42:49;3.10;51.80
11140;DHT22;5624;49.388;11.350;2023-02-28T13:45:27;3.10;51.50
11140;DHT22;5624;49.388;11.350;2023-02-28T13:47:59;3.00;51.70
11140;DHT22;5624;49.388;11.350;2023-02-28T13:53:13;3.10;51.70
11140;DHT22;5624;49.388;11.350;2023-02-28T13:58:54;3.10;52.40
11140;DHT22;5624;49.388;11.350;2023-02-28T14:01:45;3.30;51.30
11140;DHT22;5624;49.388;11.350;2023-02-28T14:07:07;3.10;53.00
11140;DHT22;5624;49.388;11.350;2023-02-28T14:09:47;2.90;51.70
11140;DHT22;5624;49.388;11.350;2023-02-28T14:15:28;3.10;51.40
11140;DHT22;5624;49.388;11.350;2023-02-28T14:17:56;3.00;51.50
11140;DHT22;5624;49.388;11.350;2023-02-28T14:20:27;3.20;52.10
11140;DHT22;5624;49.388;11.350;2023-02-28T14:25:37;3.20;51.70
11140;DHT22;5624;49.388;11.350;2023-02-28T14:31:34;3.10;52.40
11140;DHT22;5624;49.388;11.350;2023-02-28T14:34:35;3.10;51.80
11140;DHT22;5624;49.388;11.350;2023-02-28T14:37:02;3.00;51.90
11140;DHT22;5624;49.388;11.350;2023-02-28T14:39:30;2.90;53.20
11140;DHT22;5624;49.388;11.350;2023-02-28T14:41:56;2.90;53.70
11140;DHT22;5624;49.388;11.350;2023-02-28T14:44:28;2.90;53.10
11140;DHT22;5624;49.388;11.350;2023-02-28T14:46:55;2.90;52.90
11140;DHT22;5624;49.388;11.350;2023-02-28T14:54:36;2.60;53.50
11140;DHT22;5624;49.388;11.350;2023-02-28T14:57:02;2.60;53.70
11140;DHT22;5624;49.388;11.350;2023-02-28T14:59:31;2.60;54.50
11140;DHT22;5624;49.388;11.350;2023-02-28T15:02:21;2.70;53.80
11140;DHT22;5624;49.388;11.350;2023-02-28T15:04:59;2.60;54.60
11140;DHT22;5624;49.388;11.350;2023-02-28T15:07:25;2.60;54.00
11140;DHT22;5624;49.388;11.350;2023-02-28T15:10:29;2.40;54.60
11140;DHT22;5624;49.388;11.350;2023-02-28T15:13:00;2.40;54.60
11140;DHT22;5624;49.388;11.350;2023-02-28T15:15:44;2.40;54.20
11140;DHT22;5624;49.388;11.350;2023-02-28T15:18:23;2.30;54.80
11140;DHT22;5624;49.388;11.350;2023-02-28T15:20:51;2.30;55.20
11140;DHT22;5624;49.388;11.350;2023-02-28T15:23:19;2.30;54.90
11140;DHT22;5624;49.388;11.350;2023-02-28T15:25:46;2.40;54.80
11140;DHT22;5624;49.388;11.350;2023-02-28T15:28:15;2.40;54.20
11140;DHT22;5624;49.388;11.350;2023-02-28T15:30:54;2.20;54.70
11140;DHT22;5624;49.388;11.350;2023-02-28T15:33:23;2.20;54.90
11140;DHT22;5624;49.388;11.350;2023-02-28T15:35:49;2.10;55.60
11140;DHT22;5624;49.388;11.350;2023-02-28T15:40:53;2.10;55.50
11140;DHT22;5624;49.388;11.350;2023-02-28T15:43:33;2.10;55.20
11140;DHT22;5624;49.388;11.350;2023-02-28T15:46:25;2.00;55.80
11140;DHT22;5624;49.388;11.350;2023-02-28T15:48:55;2.00;56.10
11140;DHT22;5624;49.388;11.350;2023-02-28T15:51:32;1.90;55.80
11140;DHT22;5624;49.388;11.350;2023-02-28T15:54:07;1.90;56.10
11140;DHT22;5624;49.388;11.350;2023-02-28T15:56:34;1.90;56.90
11140;DHT22;5624;49.388;11.350;2023-02-28T15:59:06;1.90;56.70
11140;DHT22;5624;49.388;11.350;2023-02-28T16:01:36;1.80;56.90
11140;DHT22;5624;49.388;11.350;2023-02-28T16:04:18;1.80;57.70
11140;DHT22;5624;49.388;11.350;2023-02-28T16:07:00;1.70;57.20
11140;DHT22;5624;49.388;11.350;2023-02-28T16:09:26;1.60;57.70
11140;DHT22;5624;49.388;11.350;2023-02-28T16:11:55;1.60;57.70
11140;DHT22;5624;49.388;11.350;2023-02-28T16:14:26;1.60;57.80
11140;DHT22;5624;49.388;11.350;2023-02-28T16:16:57;1.60;57.90
11140;DHT22;5624;49.388;11.350;2023-02-28T16:19:27;1.50;58.20
11140;DHT22;5624;49.388;11.350;2023-02-28T16:21:52;1.50;58.80
11140;DHT22;5624;49.388;11.350;2023-02-28T16:24:18;1.40;58.90
11140;DHT22;5624;49.388;11.350;2023-02-28T16:26:46;1.30;59.10
11140;DHT22;5624;49.388;11.350;2023-02-28T16:31:47;1.20;59.50
11140;DHT22;5624;49.388;11.350;2023-02-28T16:34:13;1.20;59.50
11140;DHT22;5624;49.388;11.350;2023-02-28T16:36:39;1.20;59.80
11140;DHT22;5624;49.388;11.350;2023-02-28T16:39:04;1.10;59.90
11140;DHT22;5624;49.388;11.350;2023-02-28T16:41:30;1.00;60.50
11140;DHT22;5624;49.388;11.350;2023-02-28T16:43:57;1.00;60.60
11140;DHT22;5624;49.388;11.350;2023-02-28T16:46:27;0.90;60.90
11140;DHT22;5624;49.388;11.350;2023-02-28T16:48:55;0.80;61.50
11140;DHT22;5624;49.388;11.350;2023-02-28T16:51:21;0.80;61.80
11140;DHT22;5624;49.388;11.350;2023-02-28T16:53:46;0.80;61.70
11140;DHT22;5624;49.388;11.350;2023-02-28T16:56:18;0.70;61.60
11140;DHT22;5624;49.388;11.350;2023-02-28T16:58:44;0.80;61.50
11140;DHT22;5624;49.388;11.350;2023-02-28T17:01:10;0.70;61.50
11140;DHT22;5624;49.388;11.350;2023-02-28T17:03:36;0.70;62.00
11140;DHT22;5624;49.388;11.350;2023-02-28T17:06:03;0.60;62.10
11140;DHT22;5624;49.388;11.350;2023-02-28T17:08:30;0.50;62.30
11140;DHT22;5624;49.388;11.350;2023-02-28T17:10:57;0.50;62.70
11140;DHT22;5624;49.388;11.350;2023-02-28T17:13:23;0.50;62.70
11140;DHT22;5624;49.388;11.350;2023-02-28T17:15:49;0.50;62.70
11140;DHT22;5624;49.388;11.350;2023-02-28T17:18:17;0.40;62.90
11140;DHT22;5624;49.388;11.350;2023-02-28T17:20:49;0.40;63.00
11140;DHT22;5624;49.388;11.350;2023-02-28T17:23:15;0.30;63.30
11140;DHT22;5624;49.388;11.350;2023-02-28T17:25:41;0.30;63.50
11140;DHT22;5624;49.388;11.350;2023-02-28T17:28:14;0.20;63.70
11140;DHT22;5624;49.388;11.350;2023-02-28T17:30:40;0.20;63.50
11140;DHT22;5624;49.388;11.350;2023-02-28T17:33:12;0.10;63.80
11140;DHT22;5624;49.388;11.350;2023-02-28T17:35:37;0.20;63.70
11140;DHT22;5624;49.388;11.350;2023-02-28T17:38:03;0.10;63.80
11140;DHT22;5624;49.388;11.350;2023-02-28T17:40:28;0.00;64.30
11140;DHT22;5624;49.388;11.350;2023-02-28T17:42:54;0.00;64.50
11140;DHT22;5624;49.388;11.350;2023-02-28T17:45:22;0.00;64.30
11140;DHT22;5624;49.388;11.350;2023-02-28T17:47:49;0.00;65.30
11140;DHT22;5624;49.388;11.350;2023-02-28T17:50:21;0.00;64.90
11140;DHT22;5624;49.388;11.350;2023-02-28T17:52:47;0.00;65.00
11140;DHT22;5624;49.388;11.350;2023-02-28T17:55:13;0.00;65.10
11140;DHT22;5624;49.388;11.350;2023-02-28T17:57:39;-0.20;65.70
11140;DHT22;5624;49.388;11.350;2023-02-28T18:00:07;-0.20;65.60
11140;DHT22;5624;49.388;11.350;2023-02-28T18:02:33;-0.20;66.00
11140;DHT22;5624;49.388;11.350;2023-02-28T18:04:59;-0.30;66.10
11140;DHT22;5624;49.388;11.350;2023-02-28T18:07:25;-0.30;66.50
11140;DHT22;5624;49.388;11.350;2023-02-28T18:09:51;-0.40;66.80